Terminal Aerodrome Forecast
Issued by NWS Lake Charles, LA

Home | Current Version | Previous Version | Text Only | Print | Product List | Glossary On
Versions: 1 2 3 4 5 6 7 8 9 10 11 12 13 14 15 16
312
FTUS44 KLCH 300739 AAA
TAFLCH
TAF AMD
KLCH 300739Z 3008/3106 08009KT 4SM SHRA BR BKN050
     FM300900 VRB03KT P6SM VCSH OVC080
     FM301500 12008KT P6SM VCTS SCT040CB
     FM310100 VRB04KT P6SM BKN250=

USA.gov is the U.S. government's official web portal to all federal, state and local government web resources and services.